createdAt,value
2022-08-07T00:00:39.795Z,51.13
2022-08-07T00:03:08.778Z,51.28
2022-08-07T00:05:36.276Z,51.44
2022-08-07T00:08:05.647Z,51.68
2022-08-07T00:10:35.042Z,51.44
2022-08-07T00:13:17.397Z,52.07
2022-08-07T00:15:51.907Z,51.99
2022-08-07T00:18:23.964Z,51.83
2022-08-07T00:20:56.751Z,52.26
2022-08-07T00:23:24.209Z,52.57
2022-08-07T00:25:58.867Z,52.72
2022-08-07T00:28:33.224Z,52.66
2022-08-07T00:31:05.701Z,52.74
2022-08-07T00:33:33.787Z,53.18
2022-08-07T00:36:01.138Z,53.27
2022-08-07T00:38:31.359Z,53.50
2022-08-07T00:40:59.953Z,53.63
2022-08-07T00:44:00.495Z,53.85
2022-08-07T00:46:13.424Z,53.92
2022-08-07T00:48:42.342Z,53.97
2022-08-07T00:51:09.715Z,53.88
2022-08-07T00:53:38.844Z,53.70
2022-08-07T00:56:17.701Z,54.12
2022-08-07T00:58:47.363Z,54.32
2022-08-07T01:01:18.152Z,54.17
2022-08-07T01:03:56.411Z,54.62
2022-08-07T01:06:27.242Z,54.42
2022-08-07T01:08:55.688Z,53.96
2022-08-07T01:12:27.578Z,54.13
2022-08-07T01:14:10.225Z,54.18
2022-08-07T01:16:37.507Z,54.47
2022-08-07T01:19:18.396Z,55.16
2022-08-07T01:21:53.159Z,55.19
2022-08-07T01:24:22.291Z,55.19
2022-08-07T01:26:54.177Z,55.55
2022-08-07T01:29:24.206Z,55.54
2022-08-07T01:31:55.344Z,55.57
2022-08-07T01:34:31.189Z,55.98
2022-08-07T01:37:00.811Z,55.91
2022-08-07T01:39:41.412Z,55.82
2022-08-07T01:42:38.292Z,55.61
2022-08-07T01:45:09.806Z,56.11
2022-08-07T01:48:19.912Z,55.37
2022-08-07T01:50:28.838Z,55.46
2022-08-07T01:52:58.717Z,55.58
2022-08-07T01:55:28.314Z,55.88
2022-08-07T01:58:05.553Z,56.07
2022-08-07T02:00:49.927Z,55.88
2022-08-07T02:03:26.499Z,55.85
2022-08-07T02:06:08.928Z,55.69
2022-08-07T02:08:57.171Z,55.71
2022-08-07T02:11:30.897Z,55.81
2022-08-07T02:14:35.634Z,55.82
2022-08-07T02:17:06.080Z,55.84
2022-08-07T02:20:07.547Z,56.30
2022-08-07T02:22:25.713Z,56.17
2022-08-07T02:24:56.036Z,55.92
2022-08-07T02:27:25.302Z,56.68
2022-08-07T02:29:55.019Z,56.85
2022-08-07T02:32:29.971Z,56.69
2022-08-07T02:35:00.804Z,57.40
2022-08-07T02:37:36.081Z,57.34
2022-08-07T02:40:29.894Z,57.19
2022-08-07T02:42:59.201Z,57.42
2022-08-07T02:45:58.980Z,56.91
2022-08-07T02:48:17.103Z,57.18
2022-08-07T02:50:48.480Z,57.22
2022-08-07T02:53:38.509Z,57.82
2022-08-07T02:56:21.021Z,56.97
2022-08-07T02:58:51.348Z,57.07
2022-08-07T03:01:35.066Z,57.45
2022-08-07T03:04:13.067Z,57.87
2022-08-07T03:06:48.164Z,57.99
2022-08-07T03:09:41.864Z,58.06
2022-08-07T03:12:05.475Z,57.43
2022-08-07T03:14:36.010Z,57.82
2022-08-07T03:17:04.730Z,58.06
2022-08-07T03:19:36.771Z,57.93
2022-08-07T03:22:06.509Z,58.43
2022-08-07T03:24:34.779Z,58.45
2022-08-07T03:27:06.145Z,58.75
2022-08-07T03:29:49.632Z,59.03
2022-08-07T03:32:24.642Z,58.59
2022-08-07T03:35:16.874Z,58.98
2022-08-07T03:37:46.299Z,59.13
2022-08-07T03:40:22.159Z,58.87
2022-08-07T03:42:50.400Z,59.05
2022-08-07T03:45:30.413Z,59.17
2022-08-07T03:48:09.856Z,58.92
2022-08-07T03:50:38.638Z,59.13
2022-08-07T03:53:06.939Z,58.88
2022-08-07T03:55:53.045Z,59.38
2022-08-07T03:59:05.370Z,59.26
2022-08-07T04:01:14.751Z,59.10
2022-08-07T04:03:53.780Z,59.65
2022-08-07T04:06:37.698Z,59.41
2022-08-07T04:09:15.867Z,59.90
2022-08-07T04:12:26.249Z,59.23
2022-08-07T04:14:38.542Z,59.69
2022-08-07T04:17:20.287Z,59.70
2022-08-07T04:19:59.369Z,59.54
2022-08-07T04:22:29.629Z,59.31
2022-08-07T04:25:01.969Z,59.10
2022-08-07T04:27:35.452Z,59.53
2022-08-07T04:30:13.412Z,59.45
2022-08-07T04:33:00.523Z,59.37
2022-08-07T04:35:35.056Z,58.92
2022-08-07T04:38:09.078Z,59.05
2022-08-07T04:40:52.439Z,59.35
2022-08-07T04:44:09.965Z,59.96
2022-08-07T04:47:04.675Z,59.71
2022-08-07T04:49:38.765Z,59.41
2022-08-07T04:52:34.912Z,59.45
2022-08-07T04:58:13.694Z,59.86
2022-08-07T04:59:15.911Z,59.46
2022-08-07T05:01:36.497Z,59.50
2022-08-07T05:04:17.859Z,59.87
2022-08-07T05:06:58.365Z,59.18
2022-08-07T05:09:46.157Z,59.18
2022-08-07T05:12:26.901Z,59.86
2022-08-07T05:15:04.923Z,60.25
2022-08-07T05:17:52.018Z,59.34
2022-08-07T05:20:26.087Z,60.06
2022-08-07T05:23:02.089Z,59.28
2022-08-07T05:25:54.447Z,59.72
2022-08-07T05:28:23.332Z,59.72
2022-08-07T05:30:58.022Z,60.13
2022-08-07T05:33:28.699Z,59.75
2022-08-07T05:35:57.328Z,59.61
2022-08-07T05:38:59.634Z,59.69
2022-08-07T05:41:16.023Z,59.79
2022-08-07T05:44:11.845Z,60.15
2022-08-07T05:46:46.068Z,59.53
2022-08-07T05:49:22.780Z,59.20
2022-08-07T05:51:51.914Z,59.35
2022-08-07T05:54:30.927Z,59.52
2022-08-07T05:57:09.746Z,59.22
2022-08-07T05:59:39.041Z,59.38
2022-08-07T06:02:28.840Z,58.84
2022-08-07T06:05:03.470Z,58.59
2022-08-07T06:08:13.682Z,59.02
2022-08-07T06:10:20.317Z,58.43
2022-08-07T06:12:48.182Z,58.49
2022-08-07T06:15:19.721Z,58.11
2022-08-07T06:17:53.314Z,58.39
2022-08-07T06:20:25.507Z,58.02
2022-08-07T06:23:24.853Z,58.00
2022-08-07T06:25:57.097Z,57.96
2022-08-07T06:28:27.327Z,57.64
2022-08-07T06:30:56.402Z,57.62
2022-08-07T06:33:26.301Z,57.95
2022-08-07T06:36:13.533Z,57.56
2022-08-07T06:38:59.290Z,57.01
2022-08-07T06:42:02.284Z,57.00
2022-08-07T06:44:57.381Z,56.76
2022-08-07T06:47:26.884Z,56.96
2022-08-07T06:49:58.703Z,56.52
2022-08-07T06:52:36.589Z,56.35
2022-08-07T06:55:31.625Z,56.37
2022-08-07T06:58:04.472Z,56.17
2022-08-07T07:00:38.573Z,55.99
2022-08-07T07:03:08.647Z,55.85
2022-08-07T07:06:02.385Z,55.90
2022-08-07T07:08:29.905Z,55.29
2022-08-07T07:11:01.204Z,55.31
2022-08-07T07:13:57.439Z,54.58
2022-08-07T07:16:34.041Z,54.59
2022-08-07T07:19:56.553Z,54.25
2022-08-07T07:22:05.014Z,53.92
2022-08-07T07:24:57.016Z,53.35
2022-08-07T07:27:35.648Z,53.66
2022-08-07T07:30:32.355Z,52.96
2022-08-07T07:33:06.153Z,53.13
2022-08-07T07:35:54.402Z,53.00
2022-08-07T07:38:23.970Z,52.80
2022-08-07T07:40:51.687Z,52.56
2022-08-07T07:43:27.709Z,52.38
2022-08-07T07:46:53.445Z,52.24
2022-08-07T07:49:00.035Z,51.65
2022-08-07T07:51:58.216Z,51.60
2022-08-07T07:54:25.300Z,51.65
2022-08-07T07:56:55.143Z,50.78
2022-08-07T07:59:51.711Z,50.18
2022-08-07T08:02:22.633Z,50.26
2022-08-07T08:05:11.494Z,50.04
2022-08-07T08:07:59.903Z,49.44
2022-08-07T08:10:38.095Z,49.31
2022-08-07T08:13:10.489Z,48.99
2022-08-07T08:15:58.596Z,47.71
2022-08-07T08:18:27.793Z,47.64
2022-08-07T08:20:57.091Z,46.40
2022-08-07T08:23:24.326Z,46.69
2022-08-07T08:25:57.403Z,45.56
2022-08-07T08:28:38.225Z,45.51
2022-08-07T08:31:14.639Z,46.03
2022-08-07T08:33:49.422Z,45.21
2022-08-07T08:36:19.104Z,45.28
2022-08-07T08:38:55.811Z,44.83
2022-08-07T08:41:31.445Z,44.36
2022-08-07T08:44:29.613Z,43.73
2022-08-07T08:47:25.680Z,44.11
2022-08-07T08:50:28.624Z,43.51
2022-08-07T08:53:12.588Z,43.88
2022-08-07T08:55:53.348Z,43.94
2022-08-07T08:58:50.599Z,43.47
2022-08-07T09:01:40.084Z,42.50
2022-08-07T09:04:16.951Z,42.07
2022-08-07T09:07:23.026Z,41.78
2022-08-07T09:10:10.558Z,41.74
2022-08-07T09:12:53.730Z,41.18
2022-08-07T09:16:25.296Z,40.87
2022-08-07T09:18:58.153Z,40.06
2022-08-07T09:22:09.682Z,39.80
2022-08-07T09:24:59.748Z,39.78
2022-08-07T09:27:54.585Z,40.30
2022-08-07T09:30:27.892Z,39.64
2022-08-07T09:33:24.520Z,39.89
2022-08-07T09:36:18.528Z,40.22
2022-08-07T09:39:06.334Z,39.21
2022-08-07T09:42:02.921Z,39.46
2022-08-07T09:47:49.986Z,39.26
2022-08-07T09:48:02.486Z,36.87
2022-08-07T09:50:53.676Z,36.76
2022-08-07T09:53:22.467Z,34.83
2022-08-07T09:56:03.326Z,34.67
2022-08-07T09:59:05.271Z,34.73
2022-08-07T10:01:51.739Z,32.05
2022-08-07T10:04:47.698Z,31.24
2022-08-07T10:07:53.103Z,30.43
2022-08-07T10:11:16.481Z,30.45
2022-08-07T10:14:01.475Z,30.48
2022-08-07T10:16:49.735Z,29.82
2022-08-07T10:19:37.747Z,30.43
2022-08-07T10:22:45.363Z,29.02
2022-08-07T10:25:24.011Z,27.78
2022-08-07T10:28:41.399Z,28.00
2022-08-07T10:31:38.469Z,28.00
2022-08-07T10:34:32.147Z,26.84
2022-08-07T10:37:48.576Z,26.19
2022-08-07T10:40:30.096Z,26.89
2022-08-07T10:43:29.748Z,25.37
2022-08-07T10:46:11.788Z,26.23
2022-08-07T10:49:24.545Z,24.69
2022-08-07T10:52:13.832Z,25.89
2022-08-07T10:55:36.919Z,25.49
2022-08-07T10:58:52.029Z,25.48
2022-08-07T11:01:51.717Z,25.85
2022-08-07T11:04:34.553Z,25.34
2022-08-07T11:08:00.284Z,25.34
2022-08-07T11:10:24.301Z,24.81
2022-08-07T11:13:42.362Z,23.80
2022-08-07T11:15:59.650Z,23.66
2022-08-07T11:18:56.260Z,23.92
2022-08-07T11:21:40.823Z,24.59
2022-08-07T11:24:21.964Z,24.70
2022-08-07T11:27:01.914Z,23.74
2022-08-07T11:29:48.343Z,23.52
2022-08-07T11:32:43.343Z,22.58
2022-08-07T11:35:26.728Z,21.60
2022-08-07T11:37:57.975Z,21.44
2022-08-07T11:40:56.122Z,22.09
2022-08-07T11:43:29.731Z,21.68
2022-08-07T11:46:18.236Z,22.51
2022-08-07T11:49:50.390Z,22.61
2022-08-07T11:52:28.945Z,23.24
2022-08-07T11:55:12.921Z,22.82
2022-08-07T11:58:00.504Z,23.26
2022-08-07T12:00:40.366Z,23.24
2022-08-07T12:03:41.376Z,22.42
2022-08-07T12:06:39.920Z,23.82
2022-08-07T12:09:37.511Z,24.13
2022-08-07T12:12:12.106Z,23.42
2022-08-07T12:14:56.259Z,22.99
2022-08-07T12:17:39.205Z,24.16
2022-08-07T12:20:30.862Z,23.34
2022-08-07T12:24:05.069Z,23.88
2022-08-07T12:26:35.502Z,24.84
2022-08-07T12:29:38.376Z,24.77
2022-08-07T12:32:20.737Z,24.82
2022-08-07T12:34:55.657Z,24.86
2022-08-07T12:37:28.115Z,25.04
2022-08-07T12:40:36.245Z,25.34
2022-08-07T12:43:03.392Z,25.52
2022-08-07T12:46:26.475Z,25.78
2022-08-07T12:49:51.188Z,26.97
2022-08-07T12:52:41.458Z,26.81
2022-08-07T12:55:40.665Z,26.69
2022-08-07T12:58:13.037Z,26.78
2022-08-07T13:01:00.348Z,27.21
2022-08-07T13:03:59.106Z,27.36
2022-08-07T13:06:54.437Z,27.35
2022-08-07T13:10:21.958Z,27.25
2022-08-07T13:13:10.061Z,27.69
2022-08-07T13:15:47.063Z,27.62
2022-08-07T13:18:50.738Z,26.70
2022-08-07T13:21:23.593Z,27.40
2022-08-07T13:24:18.529Z,26.37
2022-08-07T13:26:53.894Z,25.79
2022-08-07T13:29:27.097Z,25.86
2022-08-07T13:32:31.428Z,25.44
2022-08-07T13:35:11.607Z,26.48
2022-08-07T13:38:01.600Z,26.73
2022-08-07T13:40:42.738Z,26.46
2022-08-07T13:43:16.052Z,26.48
2022-08-07T13:46:11.893Z,26.66
2022-08-07T13:48:38.614Z,26.42
2022-08-07T13:51:27.102Z,26.04
2022-08-07T13:54:01.975Z,25.25
2022-08-07T13:56:35.926Z,25.39
2022-08-07T13:59:28.382Z,24.80
2022-08-07T14:02:04.456Z,24.54
2022-08-07T14:04:35.648Z,24.40
2022-08-07T14:07:09.728Z,24.53
2022-08-07T14:10:01.912Z,24.20
2022-08-07T14:12:55.587Z,23.79
2022-08-07T14:15:43.683Z,23.05
2022-08-07T14:18:28.963Z,23.30
2022-08-07T14:21:11.690Z,21.89
2022-08-07T14:24:02.016Z,21.92
2022-08-07T14:26:52.959Z,21.22
2022-08-07T14:30:07.430Z,21.93
2022-08-07T14:32:13.431Z,21.82
2022-08-07T14:34:46.442Z,20.99
2022-08-07T14:37:16.834Z,20.16
2022-08-07T14:40:17.170Z,20.19
2022-08-07T14:42:33.939Z,19.41
2022-08-07T14:45:21.977Z,19.89
2022-08-07T14:47:51.353Z,19.07
2022-08-07T14:50:26.631Z,19.40
2022-08-07T14:52:55.518Z,18.70
2022-08-07T14:55:27.530Z,18.20
2022-08-07T14:57:59.433Z,17.28
2022-08-07T15:00:31.318Z,16.70
2022-08-07T15:02:59.320Z,16.91
2022-08-07T15:05:30.368Z,16.36
2022-08-07T15:07:59.880Z,16.39
2022-08-07T15:13:20.138Z,16.96
2022-08-07T15:15:52.536Z,16.50
2022-08-07T15:18:34.896Z,16.69
2022-08-07T15:21:44.321Z,16.42
2022-08-07T15:27:08.220Z,16.17
2022-08-07T15:30:06.818Z,16.46
2022-08-07T15:32:39.512Z,15.92
2022-08-07T15:35:17.826Z,15.96
2022-08-07T15:40:38.437Z,15.29
2022-08-07T15:52:02.361Z,14.10
2022-08-07T15:54:39.433Z,13.58
2022-08-07T15:57:10.803Z,13.61
2022-08-07T15:59:57.337Z,13.75
2022-08-07T16:02:46.680Z,13.85
2022-08-07T16:05:16.537Z,13.97
2022-08-07T16:08:30.846Z,13.32
2022-08-07T16:10:36.824Z,13.12
2022-08-07T16:13:17.587Z,12.70
2022-08-07T16:16:06.868Z,12.41
2022-08-07T16:19:03.493Z,12.96
2022-08-07T16:22:05.532Z,12.89
2022-08-07T16:24:52.310Z,13.12
2022-08-07T16:27:40.550Z,12.40
2022-08-07T16:30:30.580Z,12.67
2022-08-07T16:34:01.373Z,11.88
2022-08-07T16:36:31.100Z,12.31
2022-08-07T16:39:40.298Z,12.09
2022-08-07T16:42:27.980Z,11.42
2022-08-07T16:46:21.192Z,11.66
2022-08-07T16:48:27.735Z,11.67
2022-08-07T16:51:57.701Z,11.58
2022-08-07T16:54:38.221Z,10.92
2022-08-07T16:58:02.060Z,10.85
2022-08-07T17:00:29.451Z,10.68
2022-08-07T17:03:17.434Z,10.50
2022-08-07T17:06:35.887Z,10.89
2022-08-07T17:10:07.888Z,11.47
2022-08-07T17:12:35.875Z,11.14
2022-08-07T17:15:19.365Z,11.37
2022-08-07T17:17:48.661Z,12.08
2022-08-07T17:20:33.069Z,12.75
2022-08-07T17:23:14.640Z,12.78
2022-08-07T17:26:23.528Z,13.43
2022-08-07T17:30:16.084Z,13.49
2022-08-07T17:32:35.206Z,14.93
2022-08-07T17:35:55.215Z,14.80
2022-08-07T17:38:52.716Z,14.46
2022-08-07T17:42:02.121Z,15.56
2022-08-07T17:44:42.793Z,15.65
2022-08-07T17:47:42.211Z,16.09
2022-08-07T17:50:21.189Z,16.71
2022-08-07T17:53:09.536Z,17.69
2022-08-07T17:56:15.363Z,17.43
2022-08-07T17:58:56.772Z,18.08
2022-08-07T18:01:36.765Z,18.86
2022-08-07T18:04:31.172Z,18.22
2022-08-07T18:07:34.094Z,19.12
2022-08-07T18:11:17.253Z,19.21
2022-08-07T18:14:01.650Z,19.74
2022-08-07T18:16:57.883Z,20.10
2022-08-07T18:21:11.869Z,20.12
2022-08-07T18:22:38.854Z,20.39
2022-08-07T18:25:19.309Z,20.62
2022-08-07T18:28:35.283Z,20.39
2022-08-07T18:31:18.447Z,21.07
2022-08-07T18:34:37.467Z,20.84
2022-08-07T18:38:58.569Z,21.24
2022-08-07T18:40:53.828Z,21.69
2022-08-07T18:43:37.296Z,21.27
2022-08-07T18:46:24.480Z,21.92
2022-08-07T18:50:32.458Z,22.02
2022-08-07T18:52:54.325Z,22.11
2022-08-07T18:55:43.192Z,22.29
2022-08-07T18:58:40.443Z,22.61
2022-08-07T19:02:34.075Z,22.84
2022-08-07T19:04:25.078Z,22.37
2022-08-07T19:07:08.286Z,23.05
2022-08-07T19:09:56.659Z,23.11
2022-08-07T19:12:48.626Z,23.22
2022-08-07T19:16:03.109Z,23.15
2022-08-07T19:18:34.136Z,23.84
2022-08-07T19:21:45.057Z,23.74
2022-08-07T19:24:30.787Z,24.28
2022-08-07T19:28:30.536Z,24.60
2022-08-07T19:31:03.259Z,24.04
2022-08-07T19:32:46.461Z,26.58
2022-08-07T19:35:22.521Z,27.72
2022-08-07T19:37:57.611Z,27.06
2022-08-07T19:40:33.283Z,28.48
2022-08-07T19:43:21.784Z,32.64
2022-08-07T19:46:10.472Z,31.09
2022-08-07T19:48:42.225Z,32.30
2022-08-07T19:51:19.935Z,34.12
2022-08-07T19:54:35.359Z,30.38
2022-08-07T19:57:59.878Z,29.81
2022-08-07T19:59:41.589Z,28.51
2022-08-07T20:02:19.098Z,31.24
2022-08-07T20:04:50.088Z,33.80
2022-08-07T20:07:23.416Z,35.13
2022-08-07T20:10:34.350Z,36.06
2022-08-07T20:12:45.150Z,36.74
2022-08-07T20:15:22.338Z,37.43
2022-08-07T20:18:01.668Z,36.87
2022-08-07T20:20:32.664Z,37.59
2022-08-07T20:23:23.446Z,38.04
2022-08-07T20:25:55.579Z,37.50
2022-08-07T20:28:29.684Z,38.72
2022-08-07T20:30:59.018Z,38.72
2022-08-07T20:33:36.596Z,39.23
2022-08-07T20:36:07.834Z,39.26
2022-08-07T20:38:59.569Z,39.73
2022-08-07T20:41:28.061Z,40.01
2022-08-07T20:44:02.622Z,40.36
2022-08-07T20:46:34.594Z,40.28
2022-08-07T20:49:58.244Z,40.64
2022-08-07T20:51:58.940Z,40.78
2022-08-07T20:54:29.824Z,41.15
2022-08-07T20:57:04.170Z,41.14
2022-08-07T21:00:06.736Z,41.36
2022-08-07T21:02:27.750Z,40.91
2022-08-07T21:04:55.124Z,41.22
2022-08-07T21:07:27.007Z,41.02
2022-08-07T21:10:00.174Z,40.14
2022-08-07T21:12:31.579Z,39.10
2022-08-07T21:15:02.854Z,39.05
2022-08-07T21:18:03.203Z,39.22
2022-08-07T21:20:26.548Z,38.13
2022-08-07T21:22:58.388Z,39.25
2022-08-07T21:25:38.770Z,40.37
2022-08-07T21:28:50.249Z,40.78
2022-08-07T21:31:10.887Z,41.43
2022-08-07T21:33:54.666Z,40.26
2022-08-07T21:36:34.425Z,41.20
2022-08-07T21:39:47.714Z,40.78
2022-08-07T21:42:48.727Z,40.75
2022-08-07T21:46:07.611Z,40.13
2022-08-07T21:48:41.527Z,40.75
2022-08-07T21:51:27.710Z,40.01
2022-08-07T21:54:25.684Z,39.97
2022-08-07T21:57:31.460Z,39.87
2022-08-07T22:00:22.113Z,40.38
2022-08-07T22:03:08.579Z,40.20
2022-08-07T22:05:49.119Z,40.72
2022-08-07T22:08:20.992Z,41.09
2022-08-07T22:10:53.585Z,41.30
2022-08-07T22:13:24.190Z,41.34
2022-08-07T22:16:40.038Z,42.04
2022-08-07T22:19:11.998Z,42.21
2022-08-07T22:22:05.157Z,42.76
2022-08-07T22:24:50.111Z,42.38
2022-08-07T22:27:21.241Z,42.58
2022-08-07T22:30:12.375Z,43.13
2022-08-07T22:33:06.552Z,43.05
2022-08-07T22:35:57.978Z,43.20
2022-08-07T22:38:42.030Z,43.76
2022-08-07T22:41:22.050Z,43.69
2022-08-07T22:44:12.910Z,43.77
2022-08-07T22:47:23.511Z,43.87
2022-08-07T22:50:33.025Z,43.73
2022-08-07T22:54:06.429Z,44.33
2022-08-07T22:56:37.587Z,44.26
2022-08-07T22:59:13.319Z,44.93
2022-08-07T23:02:19.845Z,45.16
2022-08-07T23:06:06.948Z,45.03
2022-08-07T23:08:24.533Z,45.62
2022-08-07T23:11:18.328Z,45.30
2022-08-07T23:14:14.677Z,45.62
2022-08-07T23:17:20.474Z,46.33
2022-08-07T23:20:21.697Z,45.82
2022-08-07T23:24:05.824Z,46.16
2022-08-07T23:26:25.014Z,46.17
2022-08-07T23:30:36.284Z,46.44
2022-08-07T23:34:24.043Z,46.09
2022-08-07T23:35:43.440Z,46.48
2022-08-07T23:38:42.820Z,46.81
2022-08-07T23:42:04.381Z,46.18
2022-08-07T23:45:03.049Z,46.44
2022-08-07T23:47:47.856Z,46.40
2022-08-07T23:50:17.805Z,46.44
2022-08-07T23:53:15.382Z,46.60
2022-08-07T23:55:52.123Z,46.97
2022-08-07T23:58:37.598Z,47.08
